createdAt,value
2022-09-14T00:04:01.649Z,97175.72
2022-09-14T00:08:04.055Z,97167.06
2022-09-14T00:12:06.733Z,97158.06
2022-09-14T00:16:14.041Z,97158.59
2022-09-14T00:20:16.284Z,97180.53
2022-09-14T00:24:19.115Z,97177.47
2022-09-14T00:28:21.176Z,97170.38
2022-09-14T00:32:23.165Z,97170.88
2022-09-14T00:36:28.268Z,97174.03
2022-09-14T00:40:30.517Z,97168.75
2022-09-14T00:44:32.468Z,97164.88
2022-09-14T00:48:34.494Z,97169.34
2022-09-14T00:52:40.816Z,97156.22
2022-09-14T00:56:42.856Z,97140.41
2022-09-14T01:00:44.897Z,97141.03
2022-09-14T01:04:48.174Z,97146.19
2022-09-14T01:09:08.983Z,97153.28
2022-09-14T01:13:33.190Z,97159.59
2022-09-14T01:17:51.040Z,97164.16
2022-09-14T01:21:55.683Z,97160.91
2022-09-14T01:26:24.940Z,97153.91
2022-09-14T01:30:31.875Z,97140.66
2022-09-14T01:34:40.153Z,97134.03
2022-09-14T01:38:45.965Z,97137.66
2022-09-14T01:42:53.070Z,97143.53
2022-09-14T01:46:59.957Z,97132.81
2022-09-14T01:51:08.009Z,97131.69
2022-09-14T01:55:38.378Z,97120.94
2022-09-14T01:59:45.944Z,97112.28
2022-09-14T02:03:52.091Z,97100.69
2022-09-14T02:07:55.424Z,97102.66
2022-09-14T02:12:00.718Z,97094.81
2022-09-14T02:16:02.980Z,97085.59
2022-09-14T02:20:07.883Z,97096.75
2022-09-14T02:24:11.044Z,97084.22
2022-09-14T02:28:13.243Z,97079.75
2022-09-14T02:32:52.781Z,97078.53
2022-09-14T02:37:21.167Z,97069.19
2022-09-14T02:41:37.164Z,97067.38
2022-09-14T02:46:01.483Z,97079.75
2022-09-14T02:50:18.957Z,97065.47
2022-09-14T02:54:28.418Z,97052.69
2022-09-14T02:58:38.621Z,97054.22
2022-09-14T03:02:40.613Z,97047.41
2022-09-14T03:06:42.611Z,97037.63
2022-09-14T03:10:44.666Z,97037.63
2022-09-14T03:14:46.626Z,97040.16
2022-09-14T03:18:48.615Z,97051.59
2022-09-14T03:22:50.809Z,97051.72
2022-09-14T03:26:52.877Z,97051.28
2022-09-14T03:30:55.209Z,97049.03
2022-09-14T03:34:57.691Z,97050.88
2022-09-14T03:39:01.805Z,97052.41
2022-09-14T03:43:03.836Z,97051.03
2022-09-14T03:47:06.680Z,97045.59
2022-09-14T03:51:10.604Z,97043.78
2022-09-14T03:55:12.622Z,97047.13
2022-09-14T03:59:14.587Z,97036.53
2022-09-14T04:03:16.774Z,97030.25
2022-09-14T04:07:18.782Z,97027.63
2022-09-14T04:11:23.712Z,97022.84
2022-09-14T04:15:25.925Z,97010.28
2022-09-14T04:19:28.184Z,97002.19
2022-09-14T04:23:30.876Z,97008.59
2022-09-14T04:27:32.949Z,96990.28
2022-09-14T04:31:35.532Z,96989.47
2022-09-14T04:35:37.805Z,96996.28
2022-09-14T04:39:39.877Z,96991.47
2022-09-14T04:43:43.558Z,96991.06
2022-09-14T04:47:45.530Z,96991.19
2022-09-14T04:51:48.043Z,96990.34
2022-09-14T04:55:50.023Z,96987.69
2022-09-14T04:59:51.998Z,96978.22
2022-09-14T05:03:54.920Z,96973.31
2022-09-14T05:07:56.909Z,96971.75
2022-09-14T05:11:58.887Z,96973.44
2022-09-14T05:16:15.134Z,96974.41
2022-09-14T05:20:17.277Z,96971.63
2022-09-14T05:24:19.312Z,96972.06
2022-09-14T05:28:21.368Z,96976.97
2022-09-14T05:32:23.457Z,96973.19
2022-09-14T05:36:25.798Z,96973.91
2022-09-14T05:40:27.848Z,96971.38
2022-09-14T05:44:29.899Z,96971.94
2022-09-14T05:48:36.021Z,96972.53
2022-09-14T05:52:38.000Z,96972.97
2022-09-14T05:56:40.131Z,96970.91
2022-09-14T06:00:42.095Z,96974.13
2022-09-14T06:04:44.118Z,96973.00
2022-09-14T06:08:50.099Z,96967.59
2022-09-14T06:12:55.494Z,96968.97
2022-09-14T06:16:57.692Z,96972.59
2022-09-14T06:20:59.850Z,96962.56
2022-09-14T06:25:01.834Z,96964.09
2022-09-14T06:29:04.052Z,96958.41
2022-09-14T06:33:06.091Z,96960.91
2022-09-14T06:37:08.130Z,96971.53
2022-09-14T06:41:12.713Z,96963.41
2022-09-14T06:45:14.735Z,96962.44
2022-09-14T06:49:20.552Z,96966.06
2022-09-14T06:53:22.855Z,96957.00
2022-09-14T06:57:24.840Z,96960.34
2022-09-14T07:01:27.602Z,96957.44
2022-09-14T07:05:30.961Z,96962.34
2022-09-14T07:09:32.957Z,96958.00
2022-09-14T07:13:35.701Z,96962.31
2022-09-14T07:17:37.704Z,96965.94
2022-09-14T07:21:40.250Z,96967.38
2022-09-14T07:25:42.325Z,96958.16
2022-09-14T07:29:44.347Z,96955.06
2022-09-14T07:33:46.892Z,96952.03
2022-09-14T07:37:48.896Z,96962.66
2022-09-14T07:41:50.896Z,96964.28
2022-09-14T07:45:52.918Z,96959.69
2022-09-14T07:49:55.022Z,96948.38
2022-09-14T07:53:58.005Z,96944.19
2022-09-14T07:57:59.998Z,96941.66
2022-09-14T08:02:02.386Z,96949.31
2022-09-14T08:06:07.159Z,96954.91
2022-09-14T08:10:09.251Z,96946.94
2022-09-14T08:14:13.934Z,96942.44
2022-09-14T08:18:16.145Z,96953.06
2022-09-14T08:22:18.322Z,96965.22
2022-09-14T08:26:22.697Z,96970.72
2022-09-14T08:30:24.776Z,96972.97
2022-09-14T08:34:26.884Z,96963.31
2022-09-14T08:38:29.311Z,96947.50
2022-09-14T08:42:31.756Z,96962.34
2022-09-14T08:46:39.267Z,96964.88
2022-09-14T08:50:41.748Z,96962.47
2022-09-14T08:54:44.037Z,96963.31
2022-09-14T08:59:04.583Z,96969.59
2022-09-14T09:03:29.580Z,96972.69
2022-09-14T09:07:35.137Z,96978.25
2022-09-14T09:11:41.689Z,96977.66
2022-09-14T09:15:49.267Z,96961.22
2022-09-14T09:19:59.488Z,96974.47
2022-09-14T09:24:37.219Z,96961.31
2022-09-14T09:28:45.266Z,96960.81
2022-09-14T09:32:47.389Z,96975.59
2022-09-14T09:37:19.173Z,96986.91
2022-09-14T09:41:29.189Z,96971.56
2022-09-14T09:46:01.290Z,96969.34
2022-09-14T09:50:16.071Z,96957.25
2022-09-14T09:54:26.337Z,96944.94
2022-09-14T09:58:29.977Z,96937.38
2022-09-14T10:02:32.199Z,96943.03
2022-09-14T10:06:43.286Z,96948.81
2022-09-14T10:10:45.827Z,96952.72
2022-09-14T10:14:48.188Z,96947.59
2022-09-14T10:18:52.479Z,96930.47
2022-09-14T10:22:54.723Z,96914.63
2022-09-14T10:26:56.897Z,96932.88
2022-09-14T10:31:12.141Z,96920.56
2022-09-14T10:35:15.725Z,96920.94
2022-09-14T10:39:28.095Z,96905.16
2022-09-14T10:43:48.091Z,96888.66
2022-09-14T10:48:06.256Z,96889.59
2022-09-14T10:52:16.224Z,96884.34
2022-09-14T10:56:21.791Z,96880.59
2022-09-14T11:00:24.097Z,96882.31
2022-09-14T11:04:47.962Z,96887.72
2022-09-14T11:09:02.252Z,96894.47
2022-09-14T11:13:45.763Z,96895.69
2022-09-14T11:18:02.596Z,96895.13
2022-09-14T11:22:23.738Z,96889.53
2022-09-14T11:26:33.122Z,96891.13
2022-09-14T11:30:49.213Z,96891.28
2022-09-14T11:35:03.387Z,96895.84
2022-09-14T11:39:15.846Z,96893.66
2022-09-14T11:43:27.740Z,96897.28
2022-09-14T11:47:37.505Z,96890.16
2022-09-14T11:52:04.657Z,96884.91
2022-09-14T11:56:23.651Z,96865.06
2022-09-14T12:00:25.569Z,96863.31
2022-09-14T12:04:27.698Z,96866.97
2022-09-14T12:08:32.740Z,96868.66
2022-09-14T12:12:38.741Z,96858.28
2022-09-14T12:21:43.406Z,96864.94
2022-09-14T12:26:10.252Z,96852.75
2022-09-14T12:30:41.133Z,96840.13
2022-09-14T12:34:43.341Z,96851.31
2022-09-14T12:38:54.245Z,96849.31
2022-09-14T12:42:56.349Z,96843.16
2022-09-14T12:46:58.613Z,96840.59
2022-09-14T12:51:02.307Z,96829.28
2022-09-14T12:55:18.266Z,96822.28
2022-09-14T12:59:45.726Z,96829.28
2022-09-14T13:03:53.777Z,96813.19
2022-09-14T13:07:56.482Z,96823.22
2022-09-14T13:12:06.425Z,96829.78
2022-09-14T13:16:08.732Z,96836.97
2022-09-14T13:20:18.282Z,96824.78
2022-09-14T13:24:24.359Z,96811.25
2022-09-14T13:28:31.188Z,96809.22
2022-09-14T13:32:42.083Z,96804.19
2022-09-14T13:36:44.363Z,96789.16
2022-09-14T13:40:49.737Z,96785.44
2022-09-14T13:44:52.969Z,96783.59
2022-09-14T13:48:55.971Z,96778.03
2022-09-14T13:53:02.468Z,96768.66
2022-09-14T13:57:31.272Z,96771.94
2022-09-14T14:01:37.858Z,96789.75
2022-09-14T14:05:42.549Z,96778.88
2022-09-14T14:09:50.706Z,96795.97
2022-09-14T14:13:53.191Z,96781.75
2022-09-14T14:17:55.279Z,96775.69
2022-09-14T14:22:15.594Z,96775.94
2022-09-14T14:26:26.220Z,96780.69
2022-09-14T14:30:30.168Z,96763.69
2022-09-14T14:34:32.166Z,96765.13
2022-09-14T14:38:34.204Z,96765.41
2022-09-14T14:42:36.324Z,96759.56
2022-09-14T14:46:38.490Z,96753.72
2022-09-14T14:50:40.499Z,96748.41
2022-09-14T14:54:42.503Z,96754.72
2022-09-14T14:58:46.606Z,96759.38
2022-09-14T15:02:49.433Z,96752.06
2022-09-14T15:06:52.067Z,96742.47
2022-09-14T15:10:57.210Z,96742.66
2022-09-14T15:14:59.727Z,96753.50
2022-09-14T15:19:02.087Z,96757.09
2022-09-14T15:23:04.483Z,96756.03
2022-09-14T15:27:06.459Z,96740.16
2022-09-14T15:31:08.514Z,96735.75
2022-09-14T15:35:12.842Z,96730.69
2022-09-14T15:39:14.839Z,96737.91
2022-09-14T15:43:17.080Z,96729.03
2022-09-14T15:47:19.057Z,96740.41
2022-09-14T15:51:21.180Z,96726.84
2022-09-14T15:55:23.240Z,96718.13
2022-09-14T15:59:25.618Z,96737.25
2022-09-14T16:03:27.617Z,96718.81
2022-09-14T16:07:29.859Z,96731.72
2022-09-14T16:11:33.459Z,96716.66
2022-09-14T16:15:35.435Z,96727.88
2022-09-14T16:19:37.746Z,96736.25
2022-09-14T16:23:42.594Z,96721.25
2022-09-14T16:27:44.676Z,96715.97
2022-09-14T16:31:48.451Z,96732.91
2022-09-14T16:35:50.464Z,96732.59
2022-09-14T16:39:52.513Z,96729.91
2022-09-14T16:43:59.428Z,96723.97
2022-09-14T16:48:01.701Z,96731.09
2022-09-14T16:52:03.709Z,96718.06
2022-09-14T16:56:07.616Z,96721.31
2022-09-14T17:00:10.267Z,96696.50
2022-09-14T17:04:15.050Z,96724.75
2022-09-14T17:08:17.080Z,96772.16
2022-09-14T17:12:19.056Z,96859.22
2022-09-14T17:16:23.158Z,96714.94
2022-09-14T17:20:25.237Z,96706.00
2022-09-14T17:24:27.587Z,96721.91
2022-09-14T17:28:29.591Z,96733.13
2022-09-14T17:32:33.471Z,96741.47
2022-09-14T17:36:35.638Z,96738.97
2022-09-14T17:40:37.607Z,96747.91
2022-09-14T17:44:40.866Z,96749.59
2022-09-14T17:48:43.499Z,96746.78
2022-09-14T17:52:45.514Z,96729.88
2022-09-14T17:56:47.697Z,96720.13
2022-09-14T18:00:50.347Z,96741.03
2022-09-14T18:04:52.521Z,96748.03
2022-09-14T18:08:57.753Z,96753.50
2022-09-14T18:12:59.729Z,96752.66
2022-09-14T18:17:01.690Z,96763.81
2022-09-14T18:21:04.470Z,96770.38
2022-09-14T18:25:08.395Z,96772.31
2022-09-14T18:29:14.969Z,96776.78
2022-09-14T18:33:17.497Z,96782.25
2022-09-14T18:37:20.382Z,96792.00
2022-09-14T18:41:22.365Z,96789.34
2022-09-14T18:45:24.344Z,96805.81
2022-09-14T18:49:26.370Z,96809.00
2022-09-14T18:53:28.653Z,96823.66
2022-09-14T18:57:30.662Z,96814.63
2022-09-14T19:01:34.362Z,96817.69
2022-09-14T19:05:39.729Z,96822.69
2022-09-14T19:09:41.841Z,96826.03
2022-09-14T19:13:44.808Z,96827.44
2022-09-14T19:17:46.889Z,96830.66
2022-09-14T19:21:48.870Z,96837.47
2022-09-14T19:25:50.860Z,96832.88
2022-09-14T19:29:52.900Z,96821.44
2022-09-14T19:33:54.968Z,96826.19
2022-09-14T19:37:58.020Z,96824.09
2022-09-14T19:42:00.009Z,96835.00
2022-09-14T19:46:11.902Z,96838.31
2022-09-14T19:50:14.082Z,96838.19
2022-09-14T19:54:16.868Z,96834.69
2022-09-14T19:58:19.356Z,96852.56
2022-09-14T20:02:21.421Z,96852.00
2022-09-14T20:06:32.332Z,96851.16
2022-09-14T20:10:34.843Z,96853.13
2022-09-14T20:14:36.828Z,96855.06
2022-09-14T20:18:40.274Z,96844.47
2022-09-14T20:22:42.307Z,96859.69
2022-09-14T20:26:49.616Z,96864.03
2022-09-14T20:30:59.169Z,96857.88
2022-09-14T20:35:01.219Z,96875.16
2022-09-14T20:39:04.008Z,96863.53
2022-09-14T20:43:05.982Z,96859.13
2022-09-14T20:47:07.991Z,96856.91
2022-09-14T20:51:10.124Z,96859.34
2022-09-14T20:55:12.121Z,96863.19
2022-09-14T20:59:16.489Z,96879.50
2022-09-14T21:03:18.452Z,96876.94
2022-09-14T21:07:20.476Z,96890.25
2022-09-14T21:11:25.256Z,96895.94
2022-09-14T21:15:27.529Z,96903.38
2022-09-14T21:19:29.692Z,96890.88
2022-09-14T21:23:31.701Z,96901.34
2022-09-14T21:27:33.713Z,96899.97
2022-09-14T21:31:37.369Z,96896.84
2022-09-14T21:35:39.410Z,96899.38
2022-09-14T21:39:41.739Z,96895.41
2022-09-14T21:43:43.900Z,96903.47
2022-09-14T21:47:46.492Z,96909.13
2022-09-14T21:51:49.103Z,96909.69
2022-09-14T21:55:51.138Z,96907.47
2022-09-14T21:59:53.133Z,96899.03
2022-09-14T22:03:56.811Z,96902.81
2022-09-14T22:07:58.910Z,96902.28
2022-09-14T22:12:00.928Z,96896.44
2022-09-14T22:16:11.604Z,96903.16
2022-09-14T22:20:14.182Z,96907.75
2022-09-14T22:24:20.636Z,96909.69
2022-09-14T22:28:23.151Z,96905.09
2022-09-14T22:32:25.185Z,96903.41
2022-09-14T22:36:27.694Z,96901.88
2022-09-14T22:40:29.699Z,96896.44
2022-09-14T22:44:31.682Z,96887.69
2022-09-14T22:48:33.947Z,96893.78
2022-09-14T22:52:35.928Z,96893.78
2022-09-14T22:56:38.990Z,96901.72
2022-09-14T23:00:42.043Z,96899.09
2022-09-14T23:04:44.010Z,96886.56
2022-09-14T23:08:47.138Z,96885.59
2022-09-14T23:12:49.163Z,96899.25
2022-09-14T23:16:51.300Z,96904.53
2022-09-14T23:20:53.979Z,96895.47
2022-09-14T23:24:56.023Z,96894.50
2022-09-14T23:29:06.704Z,96898.28
2022-09-14T23:33:09.049Z,96893.09
2022-09-14T23:37:11.548Z,96891.13
2022-09-14T23:41:15.269Z,96893.53
2022-09-14T23:45:17.552Z,96893.25
2022-09-14T23:49:19.626Z,96886.03
2022-09-14T23:53:21.628Z,96892.03
2022-09-14T23:57:23.697Z,96892.97
